sensor_id;sensor_type;location;lat;lon;timestamp;P1;durP1;ratioP1;P2;durP2;ratioP2
13832;SDS011;6987;19.472;-99.276;2022-09-27T00:01:03;2.08;;;1.73;;
13832;SDS011;6987;19.472;-99.276;2022-09-27T00:03:33;1.80;;;1.70;;
13832;SDS011;6987;19.472;-99.276;2022-09-27T00:06:02;1.90;;;1.80;;
13832;SDS011;6987;19.472;-99.276;2022-09-27T00:08:32;1.95;;;1.58;;
13832;SDS011;6987;19.472;-99.276;2022-09-27T00:11:01;1.42;;;1.42;;
13832;SDS011;6987;19.472;-99.276;2022-09-27T00:13:32;2.70;;;1.70;;
13832;SDS011;6987;19.472;-99.276;2022-09-27T00:16:02;3.42;;;1.48;;
13832;SDS011;6987;19.472;-99.276;2022-09-27T00:18:31;1.83;;;1.73;;
13832;SDS011;6987;19.472;-99.276;2022-09-27T00:21:04;1.85;;;1.75;;
13832;SDS011;6987;19.472;-99.276;2022-09-27T00:23:33;2.67;;;2.45;;
13832;SDS011;6987;19.472;-99.276;2022-09-27T00:26:02;2.80;;;2.63;;
13832;SDS011;6987;19.472;-99.276;2022-09-27T00:28:33;2.95;;;1.95;;
13832;SDS011;6987;19.472;-99.276;2022-09-27T00:31:02;2.28;;;2.17;;
13832;SDS011;6987;19.472;-99.276;2022-09-27T00:33:31;2.53;;;2.13;;
13832;SDS011;6987;19.472;-99.276;2022-09-27T00:36:02;1.98;;;1.88;;
13832;SDS011;6987;19.472;-99.276;2022-09-27T00:38:31;2.13;;;2.03;;
13832;SDS011;6987;19.472;-99.276;2022-09-27T00:41:00;2.75;;;2.05;;
13832;SDS011;6987;19.472;-99.276;2022-09-27T00:43:40;2.90;;;2.08;;
13832;SDS011;6987;19.472;-99.276;2022-09-27T00:46:12;2.28;;;2.17;;
13832;SDS011;6987;19.472;-99.276;2022-09-27T00:48:43;7.32;;;2.50;;
13832;SDS011;6987;19.472;-99.276;2022-09-27T00:51:12;9.23;;;2.67;;
13832;SDS011;6987;19.472;-99.276;2022-09-27T00:53:42;2.50;;;2.30;;
13832;SDS011;6987;19.472;-99.276;2022-09-27T00:56:12;2.15;;;1.63;;
13832;SDS011;6987;19.472;-99.276;2022-09-27T00:58:43;3.10;;;1.88;;
13832;SDS011;6987;19.472;-99.276;2022-09-27T01:01:15;1.50;;;1.40;;
13832;SDS011;6987;19.472;-99.276;2022-09-27T01:03:47;2.08;;;1.67;;
13832;SDS011;6987;19.472;-99.276;2022-09-27T01:06:19;1.20;;;1.20;;
13832;SDS011;6987;19.472;-99.276;2022-09-27T01:08:48;1.15;;;1.15;;
13832;SDS011;6987;19.472;-99.276;2022-09-27T01:11:20;1.52;;;1.42;;
13832;SDS011;6987;19.472;-99.276;2022-09-27T01:14:00;2.05;;;1.40;;
13832;SDS011;6987;19.472;-99.276;2022-09-27T01:16:34;1.60;;;1.50;;
13832;SDS011;6987;19.472;-99.276;2022-09-27T01:19:08;1.55;;;1.45;;
13832;SDS011;6987;19.472;-99.276;2022-09-27T01:21:44;1.58;;;1.48;;
13832;SDS011;6987;19.472;-99.276;2022-09-27T01:24:25;1.30;;;1.25;;
13832;SDS011;6987;19.472;-99.276;2022-09-27T01:29:42;3.40;;;1.40;;
13832;SDS011;6987;19.472;-99.276;2022-09-27T01:32:21;9.57;;;1.90;;
13832;SDS011;6987;19.472;-99.276;2022-09-27T01:34:56;1.73;;;1.63;;
13832;SDS011;6987;19.472;-99.276;2022-09-27T01:37:31;1.80;;;1.70;;
13832;SDS011;6987;19.472;-99.276;2022-09-27T01:40:05;2.90;;;2.05;;
13832;SDS011;6987;19.472;-99.276;2022-09-27T01:42:38;1.70;;;1.60;;
13832;SDS011;6987;19.472;-99.276;2022-09-27T01:45:09;1.60;;;1.60;;
13832;SDS011;6987;19.472;-99.276;2022-09-27T01:47:43;4.53;;;1.60;;
13832;SDS011;6987;19.472;-99.276;2022-09-27T01:50:13;2.10;;;1.70;;
13832;SDS011;6987;19.472;-99.276;2022-09-27T01:52:43;1.85;;;1.75;;
13832;SDS011;6987;19.472;-99.276;2022-09-27T01:55:15;1.90;;;1.80;;
13832;SDS011;6987;19.472;-99.276;2022-09-27T01:57:45;2.50;;;2.30;;
13832;SDS011;6987;19.472;-99.276;2022-09-27T02:00:16;3.35;;;1.80;;
13832;SDS011;6987;19.472;-99.276;2022-09-27T02:02:49;1.55;;;1.45;;
13832;SDS011;6987;19.472;-99.276;2022-09-27T02:05:19;1.50;;;1.50;;
13832;SDS011;6987;19.472;-99.276;2022-09-27T02:07:50;1.15;;;1.15;;
13832;SDS011;6987;19.472;-99.276;2022-09-27T02:10:22;1.70;;;1.20;;
13832;SDS011;6987;19.472;-99.276;2022-09-27T02:12:53;3.25;;;1.48;;
13832;SDS011;6987;19.472;-99.276;2022-09-27T02:15:24;1.38;;;1.27;;
13832;SDS011;6987;19.472;-99.276;2022-09-27T02:17:56;2.40;;;1.30;;
13832;SDS011;6987;19.472;-99.276;2022-09-27T02:20:28;2.17;;;1.60;;
13832;SDS011;6987;19.472;-99.276;2022-09-27T02:23:00;2.78;;;1.48;;
13832;SDS011;6987;19.472;-99.276;2022-09-27T02:25:34;2.03;;;1.48;;
13832;SDS011;6987;19.472;-99.276;2022-09-27T02:28:07;1.50;;;1.40;;
13832;SDS011;6987;19.472;-99.276;2022-09-27T02:30:42;1.73;;;1.63;;
13832;SDS011;6987;19.472;-99.276;2022-09-27T02:33:12;2.25;;;1.85;;
13832;SDS011;6987;19.472;-99.276;2022-09-27T02:35:41;4.97;;;1.50;;
13832;SDS011;6987;19.472;-99.276;2022-09-27T02:38:10;2.88;;;1.40;;
13832;SDS011;6987;19.472;-99.276;2022-09-27T02:40:42;2.25;;;1.63;;
13832;SDS011;6987;19.472;-99.276;2022-09-27T02:43:11;1.17;;;1.10;;
13832;SDS011;6987;19.472;-99.276;2022-09-27T02:45:44;1.80;;;1.67;;
13832;SDS011;6987;19.472;-99.276;2022-09-27T02:48:20;2.20;;;1.52;;
13832;SDS011;6987;19.472;-99.276;2022-09-27T02:51:00;1.92;;;1.83;;
13832;SDS011;6987;19.472;-99.276;2022-09-27T02:53:37;1.60;;;1.50;;
13832;SDS011;6987;19.472;-99.276;2022-09-27T02:56:09;1.10;;;1.10;;
13832;SDS011;6987;19.472;-99.276;2022-09-27T02:58:44;1.50;;;1.45;;
13832;SDS011;6987;19.472;-99.276;2022-09-27T03:01:20;1.30;;;1.30;;
13832;SDS011;6987;19.472;-99.276;2022-09-27T03:03:54;1.33;;;1.33;;
13832;SDS011;6987;19.472;-99.276;2022-09-27T03:06:27;1.40;;;1.13;;
13832;SDS011;6987;19.472;-99.276;2022-09-27T03:08:56;2.35;;;1.45;;
13832;SDS011;6987;19.472;-99.276;2022-09-27T03:11:25;1.67;;;1.58;;
13832;SDS011;6987;19.472;-99.276;2022-09-27T03:13:54;1.35;;;1.35;;
13832;SDS011;6987;19.472;-99.276;2022-09-27T03:16:24;3.33;;;1.73;;
13832;SDS011;6987;19.472;-99.276;2022-09-27T03:18:54;2.55;;;2.40;;
13832;SDS011;6987;19.472;-99.276;2022-09-27T03:21:23;4.15;;;2.28;;
13832;SDS011;6987;19.472;-99.276;2022-09-27T03:23:52;1.58;;;1.58;;
13832;SDS011;6987;19.472;-99.276;2022-09-27T03:26:20;2.13;;;1.63;;
13832;SDS011;6987;19.472;-99.276;2022-09-27T03:28:49;3.42;;;1.90;;
13832;SDS011;6987;19.472;-99.276;2022-09-27T03:31:18;1.73;;;1.63;;
13832;SDS011;6987;19.472;-99.276;2022-09-27T03:33:47;1.42;;;1.42;;
13832;SDS011;6987;19.472;-99.276;2022-09-27T03:36:17;1.73;;;1.63;;
13832;SDS011;6987;19.472;-99.276;2022-09-27T03:38:46;3.60;;;1.55;;
13832;SDS011;6987;19.472;-99.276;2022-09-27T03:41:15;2.67;;;1.60;;
13832;SDS011;6987;19.472;-99.276;2022-09-27T03:43:44;2.03;;;1.73;;
13832;SDS011;6987;19.472;-99.276;2022-09-27T03:46:12;1.70;;;1.60;;
13832;SDS011;6987;19.472;-99.276;2022-09-27T03:48:42;1.92;;;1.75;;
13832;SDS011;6987;19.472;-99.276;2022-09-27T03:51:11;1.67;;;1.58;;
13832;SDS011;6987;19.472;-99.276;2022-09-27T03:53:41;1.60;;;1.60;;
13832;SDS011;6987;19.472;-99.276;2022-09-27T03:56:10;1.58;;;1.48;;
13832;SDS011;6987;19.472;-99.276;2022-09-27T03:58:39;1.38;;;1.38;;
13832;SDS011;6987;19.472;-99.276;2022-09-27T04:01:08;1.58;;;1.48;;
13832;SDS011;6987;19.472;-99.276;2022-09-27T04:03:37;2.08;;;1.80;;
13832;SDS011;6987;19.472;-99.276;2022-09-27T04:06:06;2.08;;;1.98;;
13832;SDS011;6987;19.472;-99.276;2022-09-27T04:08:35;1.70;;;1.60;;
13832;SDS011;6987;19.472;-99.276;2022-09-27T04:11:06;2.05;;;1.85;;
13832;SDS011;6987;19.472;-99.276;2022-09-27T04:13:35;2.38;;;2.17;;
13832;SDS011;6987;19.472;-99.276;2022-09-27T04:16:04;2.10;;;2.00;;
13832;SDS011;6987;19.472;-99.276;2022-09-27T04:18:33;1.65;;;1.55;;
13832;SDS011;6987;19.472;-99.276;2022-09-27T04:21:02;1.73;;;1.63;;
13832;SDS011;6987;19.472;-99.276;2022-09-27T04:23:31;1.63;;;1.52;;
13832;SDS011;6987;19.472;-99.276;2022-09-27T04:26:01;2.15;;;2.05;;
13832;SDS011;6987;19.472;-99.276;2022-09-27T04:28:31;1.80;;;1.70;;
13832;SDS011;6987;19.472;-99.276;2022-09-27T04:31:00;2.38;;;1.90;;
13832;SDS011;6987;19.472;-99.276;2022-09-27T04:33:29;2.45;;;1.88;;
13832;SDS011;6987;19.472;-99.276;2022-09-27T04:35:58;0.90;;;0.90;;
13832;SDS011;6987;19.472;-99.276;2022-09-27T04:38:44;3.97;;;1.05;;
13832;SDS011;6987;19.472;-99.276;2022-09-27T04:41:13;3.15;;;1.15;;
13832;SDS011;6987;19.472;-99.276;2022-09-27T04:43:43;1.05;;;1.00;;
13832;SDS011;6987;19.472;-99.276;2022-09-27T04:46:12;1.30;;;1.00;;
13832;SDS011;6987;19.472;-99.276;2022-09-27T04:48:41;1.13;;;1.00;;
13832;SDS011;6987;19.472;-99.276;2022-09-27T04:51:10;0.85;;;0.85;;
13832;SDS011;6987;19.472;-99.276;2022-09-27T04:53:40;0.88;;;0.80;;
13832;SDS011;6987;19.472;-99.276;2022-09-27T04:56:09;1.75;;;1.10;;
13832;SDS011;6987;19.472;-99.276;2022-09-27T04:58:38;0.98;;;0.98;;
13832;SDS011;6987;19.472;-99.276;2022-09-27T05:01:09;0.93;;;0.93;;
13832;SDS011;6987;19.472;-99.276;2022-09-27T05:03:38;1.30;;;1.20;;
13832;SDS011;6987;19.472;-99.276;2022-09-27T05:06:07;0.98;;;0.98;;
13832;SDS011;6987;19.472;-99.276;2022-09-27T05:08:36;1.00;;;1.00;;
13832;SDS011;6987;19.472;-99.276;2022-09-27T05:11:05;1.25;;;1.25;;
13832;SDS011;6987;19.472;-99.276;2022-09-27T05:13:33;1.55;;;1.50;;
13832;SDS011;6987;19.472;-99.276;2022-09-27T05:16:02;1.13;;;1.02;;
13832;SDS011;6987;19.472;-99.276;2022-09-27T05:18:33;1.88;;;1.60;;
13832;SDS011;6987;19.472;-99.276;2022-09-27T05:21:02;1.52;;;1.52;;
13832;SDS011;6987;19.472;-99.276;2022-09-27T05:23:31;1.70;;;1.60;;
13832;SDS011;6987;19.472;-99.276;2022-09-27T05:26:02;2.70;;;1.73;;
13832;SDS011;6987;19.472;-99.276;2022-09-27T05:28:31;1.50;;;1.40;;
13832;SDS011;6987;19.472;-99.276;2022-09-27T05:31:00;1.95;;;1.60;;
13832;SDS011;6987;19.472;-99.276;2022-09-27T05:33:28;1.98;;;1.83;;
13832;SDS011;6987;19.472;-99.276;2022-09-27T05:36:00;1.42;;;1.33;;
13832;SDS011;6987;19.472;-99.276;2022-09-27T05:38:29;5.90;;;1.63;;
13832;SDS011;6987;19.472;-99.276;2022-09-27T05:40:58;1.00;;;1.00;;
13832;SDS011;6987;19.472;-99.276;2022-09-27T05:43:28;2.63;;;1.30;;
13832;SDS011;6987;19.472;-99.276;2022-09-27T05:45:57;1.25;;;1.15;;
13832;SDS011;6987;19.472;-99.276;2022-09-27T05:48:25;1.13;;;1.13;;
13832;SDS011;6987;19.472;-99.276;2022-09-27T05:50:55;1.10;;;1.10;;
13832;SDS011;6987;19.472;-99.276;2022-09-27T05:53:25;1.23;;;1.23;;
13832;SDS011;6987;19.472;-99.276;2022-09-27T05:55:54;1.55;;;1.45;;
13832;SDS011;6987;19.472;-99.276;2022-09-27T05:58:23;2.33;;;1.48;;
13832;SDS011;6987;19.472;-99.276;2022-09-27T06:00:52;1.75;;;1.65;;
13832;SDS011;6987;19.472;-99.276;2022-09-27T06:03:20;1.60;;;1.50;;
13832;SDS011;6987;19.472;-99.276;2022-09-27T06:05:49;1.40;;;1.40;;
13832;SDS011;6987;19.472;-99.276;2022-09-27T06:08:18;1.35;;;1.35;;
13832;SDS011;6987;19.472;-99.276;2022-09-27T06:10:49;1.80;;;1.55;;
13832;SDS011;6987;19.472;-99.276;2022-09-27T06:13:18;1.40;;;1.40;;
13832;SDS011;6987;19.472;-99.276;2022-09-27T06:15:47;3.47;;;1.52;;
13832;SDS011;6987;19.472;-99.276;2022-09-27T06:18:16;1.60;;;1.50;;
13832;SDS011;6987;19.472;-99.276;2022-09-27T06:20:45;5.40;;;1.88;;
13832;SDS011;6987;19.472;-99.276;2022-09-27T06:23:14;1.73;;;1.70;;
13832;SDS011;6987;19.472;-99.276;2022-09-27T06:25:43;2.03;;;1.88;;
13832;SDS011;6987;19.472;-99.276;2022-09-27T06:28:15;1.67;;;1.67;;
13832;SDS011;6987;19.472;-99.276;2022-09-27T06:30:44;1.70;;;1.60;;
13832;SDS011;6987;19.472;-99.276;2022-09-27T06:33:14;2.65;;;2.20;;
13832;SDS011;6987;19.472;-99.276;2022-09-27T06:35:43;1.80;;;1.73;;
13832;SDS011;6987;19.472;-99.276;2022-09-27T06:38:12;1.85;;;1.75;;
13832;SDS011;6987;19.472;-99.276;2022-09-27T06:40:41;2.08;;;1.98;;
13832;SDS011;6987;19.472;-99.276;2022-09-27T06:43:11;1.95;;;1.83;;
13832;SDS011;6987;19.472;-99.276;2022-09-27T06:45:41;5.28;;;1.80;;
13832;SDS011;6987;19.472;-99.276;2022-09-27T06:48:11;1.77;;;1.67;;
13832;SDS011;6987;19.472;-99.276;2022-09-27T06:50:40;5.20;;;1.77;;
13832;SDS011;6987;19.472;-99.276;2022-09-27T06:53:10;1.65;;;1.65;;
13832;SDS011;6987;19.472;-99.276;2022-09-27T06:55:40;1.60;;;1.50;;
13832;SDS011;6987;19.472;-99.276;2022-09-27T06:58:09;2.13;;;2.03;;
13832;SDS011;6987;19.472;-99.276;2022-09-27T07:00:56;2.00;;;1.90;;
13832;SDS011;6987;19.472;-99.276;2022-09-27T07:03:25;1.85;;;1.75;;
13832;SDS011;6987;19.472;-99.276;2022-09-27T07:05:57;1.45;;;1.35;;
13832;SDS011;6987;19.472;-99.276;2022-09-27T07:08:26;2.05;;;1.85;;
13832;SDS011;6987;19.472;-99.276;2022-09-27T07:10:59;1.67;;;1.58;;
13832;SDS011;6987;19.472;-99.276;2022-09-27T07:13:28;1.83;;;1.75;;
13832;SDS011;6987;19.472;-99.276;2022-09-27T07:16:00;1.95;;;1.85;;
13832;SDS011;6987;19.472;-99.276;2022-09-27T07:18:29;2.58;;;1.95;;
13832;SDS011;6987;19.472;-99.276;2022-09-27T07:20:58;1.40;;;1.40;;
13832;SDS011;6987;19.472;-99.276;2022-09-27T07:23:28;1.80;;;1.70;;
13832;SDS011;6987;19.472;-99.276;2022-09-27T07:25:59;1.88;;;1.40;;
13832;SDS011;6987;19.472;-99.276;2022-09-27T07:28:29;1.20;;;1.20;;
13832;SDS011;6987;19.472;-99.276;2022-09-27T07:31:00;1.42;;;1.33;;
13832;SDS011;6987;19.472;-99.276;2022-09-27T07:33:29;1.45;;;1.45;;
13832;SDS011;6987;19.472;-99.276;2022-09-27T07:35:58;1.13;;;1.02;;
13832;SDS011;6987;19.472;-99.276;2022-09-27T07:38:27;1.25;;;1.20;;
13832;SDS011;6987;19.472;-99.276;2022-09-27T07:40:56;1.20;;;1.20;;
13832;SDS011;6987;19.472;-99.276;2022-09-27T07:43:25;2.05;;;1.38;;
13832;SDS011;6987;19.472;-99.276;2022-09-27T07:45:55;1.52;;;1.42;;
13832;SDS011;6987;19.472;-99.276;2022-09-27T07:48:25;3.90;;;1.63;;
13832;SDS011;6987;19.472;-99.276;2022-09-27T07:50:54;1.15;;;1.15;;
13832;SDS011;6987;19.472;-99.276;2022-09-27T07:53:23;1.55;;;1.45;;
13832;SDS011;6987;19.472;-99.276;2022-09-27T07:55:52;0.90;;;0.90;;
13832;SDS011;6987;19.472;-99.276;2022-09-27T07:58:21;1.98;;;1.42;;
13832;SDS011;6987;19.472;-99.276;2022-09-27T08:00:50;1.55;;;1.45;;
13832;SDS011;6987;19.472;-99.276;2022-09-27T08:03:21;1.20;;;1.20;;
13832;SDS011;6987;19.472;-99.276;2022-09-27T08:05:51;1.10;;;1.10;;
13832;SDS011;6987;19.472;-99.276;2022-09-27T08:08:20;1.88;;;1.40;;
13832;SDS011;6987;19.472;-99.276;2022-09-27T08:10:49;1.70;;;1.60;;
13832;SDS011;6987;19.472;-99.276;2022-09-27T08:13:18;1.10;;;1.10;;
13832;SDS011;6987;19.472;-99.276;2022-09-27T08:15:47;1.77;;;1.67;;
13832;SDS011;6987;19.472;-99.276;2022-09-27T08:18:17;1.90;;;1.80;;
13832;SDS011;6987;19.472;-99.276;2022-09-27T08:20:46;2.33;;;1.60;;
13832;SDS011;6987;19.472;-99.276;2022-09-27T08:23:17;1.27;;;1.27;;
13832;SDS011;6987;19.472;-99.276;2022-09-27T08:25:50;1.80;;;1.60;;
13832;SDS011;6987;19.472;-99.276;2022-09-27T08:28:19;1.02;;;1.02;;
13832;SDS011;6987;19.472;-99.276;2022-09-27T08:30:48;0.52;;;0.52;;
13832;SDS011;6987;19.472;-99.276;2022-09-27T08:33:18;0.65;;;0.65;;
13832;SDS011;6987;19.472;-99.276;2022-09-27T08:35:47;0.82;;;0.82;;
13832;SDS011;6987;19.472;-99.276;2022-09-27T08:38:17;2.45;;;1.00;;
13832;SDS011;6987;19.472;-99.276;2022-09-27T08:40:50;1.70;;;1.10;;
13832;SDS011;6987;19.472;-99.276;2022-09-27T08:43:27;1.55;;;1.50;;
13832;SDS011;6987;19.472;-99.276;2022-09-27T08:48:40;1.45;;;1.42;;
13832;SDS011;6987;19.472;-99.276;2022-09-27T08:51:10;2.15;;;2.05;;
13832;SDS011;6987;19.472;-99.276;2022-09-27T08:53:44;2.60;;;2.40;;
13832;SDS011;6987;19.472;-99.276;2022-09-27T08:56:15;3.00;;;2.90;;
13832;SDS011;6987;19.472;-99.276;2022-09-27T08:58:48;3.05;;;2.95;;
13832;SDS011;6987;19.472;-99.276;2022-09-27T09:01:17;3.65;;;3.45;;
13832;SDS011;6987;19.472;-99.276;2022-09-27T09:03:47;3.60;;;3.40;;
13832;SDS011;6987;19.472;-99.276;2022-09-27T09:06:19;4.22;;;3.92;;
13832;SDS011;6987;19.472;-99.276;2022-09-27T09:08:53;4.43;;;4.18;;
13832;SDS011;6987;19.472;-99.276;2022-09-27T09:11:26;5.35;;;3.75;;
13832;SDS011;6987;19.472;-99.276;2022-09-27T09:14:28;4.05;;;3.85;;
13832;SDS011;6987;19.472;-99.276;2022-09-27T09:17:02;5.18;;;4.78;;
13832;SDS011;6987;19.472;-99.276;2022-09-27T09:19:38;5.50;;;3.85;;
13832;SDS011;6987;19.472;-99.276;2022-09-27T09:22:25;3.40;;;3.10;;
13832;SDS011;6987;19.472;-99.276;2022-09-27T09:25:01;4.05;;;2.72;;
13832;SDS011;6987;19.472;-99.276;2022-09-27T09:27:34;2.50;;;2.30;;
13832;SDS011;6987;19.472;-99.276;2022-09-27T09:35:38;2.05;;;1.95;;
13832;SDS011;6987;19.472;-99.276;2022-09-27T09:38:09;1.80;;;1.70;;
13832;SDS011;6987;19.472;-99.276;2022-09-27T09:40:43;1.55;;;1.45;;
13832;SDS011;6987;19.472;-99.276;2022-09-27T09:43:14;1.85;;;1.75;;
13832;SDS011;6987;19.472;-99.276;2022-09-27T09:45:45;2.00;;;1.90;;
13832;SDS011;6987;19.472;-99.276;2022-09-27T09:48:15;1.98;;;1.70;;
13832;SDS011;6987;19.472;-99.276;2022-09-27T09:50:47;1.90;;;1.80;;
13832;SDS011;6987;19.472;-99.276;2022-09-27T09:53:16;1.90;;;1.80;;
13832;SDS011;6987;19.472;-99.276;2022-09-27T09:55:49;1.77;;;1.67;;
13832;SDS011;6987;19.472;-99.276;2022-09-27T09:58:21;1.48;;;1.48;;
13832;SDS011;6987;19.472;-99.276;2022-09-27T10:00:51;1.65;;;1.60;;
13832;SDS011;6987;19.472;-99.276;2022-09-27T10:03:22;1.75;;;1.65;;
13832;SDS011;6987;19.472;-99.276;2022-09-27T10:05:50;1.38;;;1.33;;
13832;SDS011;6987;19.472;-99.276;2022-09-27T10:08:20;2.85;;;1.33;;
13832;SDS011;6987;19.472;-99.276;2022-09-27T10:10:50;1.38;;;1.27;;
13832;SDS011;6987;19.472;-99.276;2022-09-27T10:13:20;1.50;;;1.50;;
13832;SDS011;6987;19.472;-99.276;2022-09-27T10:15:52;1.20;;;1.20;;
13832;SDS011;6987;19.472;-99.276;2022-09-27T10:18:21;1.40;;;1.35;;
13832;SDS011;6987;19.472;-99.276;2022-09-27T10:20:54;1.70;;;1.35;;
13832;SDS011;6987;19.472;-99.276;2022-09-27T10:23:23;1.17;;;1.17;;
13832;SDS011;6987;19.472;-99.276;2022-09-27T10:25:55;1.35;;;1.20;;
13832;SDS011;6987;19.472;-99.276;2022-09-27T10:28:32;1.05;;;1.00;;
13832;SDS011;6987;19.472;-99.276;2022-09-27T10:31:02;1.35;;;1.25;;
13832;SDS011;6987;19.472;-99.276;2022-09-27T10:33:32;1.17;;;1.17;;
13832;SDS011;6987;19.472;-99.276;2022-09-27T10:36:02;1.20;;;1.20;;
13832;SDS011;6987;19.472;-99.276;2022-09-27T10:38:31;1.02;;;1.02;;
13832;SDS011;6987;19.472;-99.276;2022-09-27T10:44:23;1.23;;;1.13;;
13832;SDS011;6987;19.472;-99.276;2022-09-27T10:46:53;1.00;;;1.00;;
13832;SDS011;6987;19.472;-99.276;2022-09-27T10:49:24;1.30;;;1.30;;
13832;SDS011;6987;19.472;-99.276;2022-09-27T10:51:54;1.27;;;1.17;;
13832;SDS011;6987;19.472;-99.276;2022-09-27T10:54:24;1.27;;;1.27;;
13832;SDS011;6987;19.472;-99.276;2022-09-27T10:56:54;1.17;;;1.08;;
13832;SDS011;6987;19.472;-99.276;2022-09-27T10:59:25;1.33;;;1.33;;
13832;SDS011;6987;19.472;-99.276;2022-09-27T11:01:55;1.08;;;1.02;;
13832;SDS011;6987;19.472;-99.276;2022-09-27T11:04:27;1.35;;;1.20;;
13832;SDS011;6987;19.472;-99.276;2022-09-27T11:07:11;1.35;;;1.10;;
13832;SDS011;6987;19.472;-99.276;2022-09-27T11:09:45;1.00;;;1.00;;
13832;SDS011;6987;19.472;-99.276;2022-09-27T11:12:14;0.95;;;0.95;;
13832;SDS011;6987;19.472;-99.276;2022-09-27T11:14:50;1.30;;;1.20;;
13832;SDS011;6987;19.472;-99.276;2022-09-27T11:17:21;1.50;;;0.95;;
13832;SDS011;6987;19.472;-99.276;2022-09-27T11:20:00;0.80;;;0.80;;
13832;SDS011;6987;19.472;-99.276;2022-09-27T11:22:36;1.13;;;1.13;;
13832;SDS011;6987;19.472;-99.276;2022-09-27T11:25:12;1.08;;;1.08;;
13832;SDS011;6987;19.472;-99.276;2022-09-27T11:27:46;1.00;;;0.90;;
13832;SDS011;6987;19.472;-99.276;2022-09-27T11:30:19;1.05;;;1.05;;
13832;SDS011;6987;19.472;-99.276;2022-09-27T11:33:01;0.98;;;0.98;;
13832;SDS011;6987;19.472;-99.276;2022-09-27T11:35:39;1.70;;;1.60;;
13832;SDS011;6987;19.472;-99.276;2022-09-27T11:38:16;1.10;;;1.00;;
13832;SDS011;6987;19.472;-99.276;2022-09-27T11:40:51;1.00;;;0.90;;
13832;SDS011;6987;19.472;-99.276;2022-09-27T11:43:28;1.30;;;1.30;;
13832;SDS011;6987;19.472;-99.276;2022-09-27T11:46:05;1.30;;;1.20;;
13832;SDS011;6987;19.472;-99.276;2022-09-27T11:48:44;0.90;;;0.90;;
13832;SDS011;6987;19.472;-99.276;2022-09-27T11:51:23;1.27;;;1.17;;
13832;SDS011;6987;19.472;-99.276;2022-09-27T11:54:04;1.60;;;1.50;;
13832;SDS011;6987;19.472;-99.276;2022-09-27T11:56:36;1.80;;;1.70;;
13832;SDS011;6987;19.472;-99.276;2022-09-27T11:59:14;3.25;;;1.42;;
13832;SDS011;6987;19.472;-99.276;2022-09-27T12:01:49;1.42;;;1.42;;
13832;SDS011;6987;19.472;-99.276;2022-09-27T12:07:09;1.33;;;1.30;;
13832;SDS011;6987;19.472;-99.276;2022-09-27T12:09:42;1.48;;;1.38;;
13832;SDS011;6987;19.472;-99.276;2022-09-27T12:12:12;1.75;;;1.65;;
13832;SDS011;6987;19.472;-99.276;2022-09-27T12:14:43;1.60;;;1.50;;
13832;SDS011;6987;19.472;-99.276;2022-09-27T12:17:15;1.65;;;1.55;;
13832;SDS011;6987;19.472;-99.276;2022-09-27T12:19:47;1.75;;;1.65;;
13832;SDS011;6987;19.472;-99.276;2022-09-27T12:22:18;1.45;;;1.33;;
13832;SDS011;6987;19.472;-99.276;2022-09-27T12:24:48;1.77;;;1.67;;
13832;SDS011;6987;19.472;-99.276;2022-09-27T12:27:19;2.92;;;1.70;;
13832;SDS011;6987;19.472;-99.276;2022-09-27T12:29:48;1.85;;;1.75;;
13832;SDS011;6987;19.472;-99.276;2022-09-27T12:32:24;1.85;;;1.50;;
13832;SDS011;6987;19.472;-99.276;2022-09-27T12:34:55;2.80;;;1.95;;
13832;SDS011;6987;19.472;-99.276;2022-09-27T12:37:24;1.40;;;1.30;;
13832;SDS011;6987;19.472;-99.276;2022-09-27T12:39:56;2.08;;;1.98;;
13832;SDS011;6987;19.472;-99.276;2022-09-27T12:42:27;2.03;;;1.83;;
13832;SDS011;6987;19.472;-99.276;2022-09-27T12:44:57;1.98;;;1.73;;
13832;SDS011;6987;19.472;-99.276;2022-09-27T12:47:41;1.75;;;1.65;;
13832;SDS011;6987;19.472;-99.276;2022-09-27T12:50:12;4.53;;;3.50;;
13832;SDS011;6987;19.472;-99.276;2022-09-27T12:52:42;4.95;;;4.65;;
13832;SDS011;6987;19.472;-99.276;2022-09-27T12:55:24;7.28;;;6.68;;
13832;SDS011;6987;19.472;-99.276;2022-09-27T12:58:05;7.95;;;7.15;;
13832;SDS011;6987;19.472;-99.276;2022-09-27T13:00:40;7.95;;;7.10;;
13832;SDS011;6987;19.472;-99.276;2022-09-27T13:03:21;8.13;;;7.43;;
13832;SDS011;6987;19.472;-99.276;2022-09-27T13:05:56;8.48;;;7.70;;
13832;SDS011;6987;19.472;-99.276;2022-09-27T13:08:32;7.68;;;7.03;;
13832;SDS011;6987;19.472;-99.276;2022-09-27T13:11:05;8.30;;;7.22;;
13832;SDS011;6987;19.472;-99.276;2022-09-27T13:13:36;8.15;;;7.35;;
13832;SDS011;6987;19.472;-99.276;2022-09-27T13:16:06;8.32;;;7.38;;
13832;SDS011;6987;19.472;-99.276;2022-09-27T13:18:53;8.50;;;7.70;;
13832;SDS011;6987;19.472;-99.276;2022-09-27T13:26:55;8.05;;;7.25;;
13832;SDS011;6987;19.472;-99.276;2022-09-27T13:29:32;7.28;;;6.55;;
13832;SDS011;6987;19.472;-99.276;2022-09-27T13:34:55;10.02;;;7.28;;
13832;SDS011;6987;19.472;-99.276;2022-09-27T13:40:24;7.00;;;6.30;;
13832;SDS011;6987;19.472;-99.276;2022-09-27T13:43:17;6.43;;;5.45;;
13832;SDS011;6987;19.472;-99.276;2022-09-27T13:45:51;6.13;;;5.25;;
13832;SDS011;6987;19.472;-99.276;2022-09-27T13:48:23;6.05;;;5.45;;
13832;SDS011;6987;19.472;-99.276;2022-09-27T13:50:58;7.25;;;5.25;;
13832;SDS011;6987;19.472;-99.276;2022-09-27T13:53:30;6.45;;;5.95;;
13832;SDS011;6987;19.472;-99.276;2022-09-27T13:56:01;5.55;;;5.15;;
13832;SDS011;6987;19.472;-99.276;2022-09-27T13:58:43;3.80;;;3.60;;
13832;SDS011;6987;19.472;-99.276;2022-09-27T14:01:19;6.47;;;5.18;;
13832;SDS011;6987;19.472;-99.276;2022-09-27T14:03:50;6.05;;;5.38;;
13832;SDS011;6987;19.472;-99.276;2022-09-27T14:06:22;5.10;;;4.70;;
13832;SDS011;6987;19.472;-99.276;2022-09-27T14:08:52;6.57;;;4.97;;
13832;SDS011;6987;19.472;-99.276;2022-09-27T14:11:23;5.93;;;5.03;;
13832;SDS011;6987;19.472;-99.276;2022-09-27T14:13:53;4.90;;;4.43;;
13832;SDS011;6987;19.472;-99.276;2022-09-27T14:16:22;5.28;;;4.88;;
13832;SDS011;6987;19.472;-99.276;2022-09-27T14:18:54;5.43;;;4.93;;
13832;SDS011;6987;19.472;-99.276;2022-09-27T14:21:27;4.03;;;3.72;;
13832;SDS011;6987;19.472;-99.276;2022-09-27T14:26:43;7.70;;;4.55;;
13832;SDS011;6987;19.472;-99.276;2022-09-27T14:29:14;4.57;;;4.28;;
13832;SDS011;6987;19.472;-99.276;2022-09-27T14:31:43;4.07;;;3.80;;
13832;SDS011;6987;19.472;-99.276;2022-09-27T14:34:13;4.03;;;3.28;;
13832;SDS011;6987;19.472;-99.276;2022-09-27T14:36:44;3.90;;;3.30;;
13832;SDS011;6987;19.472;-99.276;2022-09-27T14:39:30;4.53;;;4.13;;
13832;SDS011;6987;19.472;-99.276;2022-09-27T14:42:02;4.55;;;4.03;;
13832;SDS011;6987;19.472;-99.276;2022-09-27T14:44:33;3.83;;;3.50;;
13832;SDS011;6987;19.472;-99.276;2022-09-27T14:47:08;3.33;;;3.08;;
13832;SDS011;6987;19.472;-99.276;2022-09-27T14:49:45;3.85;;;3.55;;
13832;SDS011;6987;19.472;-99.276;2022-09-27T14:52:17;6.10;;;2.95;;
13832;SDS011;6987;19.472;-99.276;2022-09-27T14:54:57;3.38;;;3.08;;
13832;SDS011;6987;19.472;-99.276;2022-09-27T14:57:27;4.38;;;3.38;;
13832;SDS011;6987;19.472;-99.276;2022-09-27T14:59:57;15.00;;;3.63;;
13832;SDS011;6987;19.472;-99.276;2022-09-27T15:02:28;3.00;;;2.80;;
13832;SDS011;6987;19.472;-99.276;2022-09-27T15:04:58;3.10;;;2.90;;
13832;SDS011;6987;19.472;-99.276;2022-09-27T15:07:28;2.58;;;2.15;;
13832;SDS011;6987;19.472;-99.276;2022-09-27T15:09:58;2.72;;;2.50;;
13832;SDS011;6987;19.472;-99.276;2022-09-27T15:12:27;2.75;;;2.65;;
13832;SDS011;6987;19.472;-99.276;2022-09-27T15:14:56;2.92;;;2.63;;
13832;SDS011;6987;19.472;-99.276;2022-09-27T15:17:26;2.83;;;2.63;;
13832;SDS011;6987;19.472;-99.276;2022-09-27T15:19:55;3.25;;;3.05;;
13832;SDS011;6987;19.472;-99.276;2022-09-27T15:22:36;2.78;;;2.67;;
13832;SDS011;6987;19.472;-99.276;2022-09-27T15:25:16;3.88;;;3.10;;
13832;SDS011;6987;19.472;-99.276;2022-09-27T15:27:49;2.88;;;2.65;;
13832;SDS011;6987;19.472;-99.276;2022-09-27T15:30:20;3.35;;;3.15;;